Date,TemperatureHighF,TemperatureAvgF,TemperatureLowF,DewpointHighF,DewpointAvgF,DewpointLowF,HumidityHigh,HumidityAvg,HumidityLow,PressureMaxIn,PressureMinIn,WindSpeedMaxMPH,WindSpeedAvgMPH,GustSpeedMaxMPH,PrecipitationSumIn
2013-6-1,82.0,73.6,62.0,63.0,59.8,56.0,93,64,45,0.00,40.00,12,8,25,0.00
2013-6-2,77.0,70.0,61.0,65.0,57.7,-99.9,94,70,48,0.00,40.00,13,8,29,0.01
2013-6-3,68.0,60.0,48.0,55.0,48.2,34.0,99,68,35,0.00,40.00,8,4,19,0.01
2013-6-4,71.0,55.1,40.0,42.0,38.5,34.0,90,58,30,0.00,40.00,8,4,16,0.00
2013-6-5,74.0,61.2,49.0,51.0,41.7,34.0,68,50,37,0.00,40.00,9,6,16,0.00
2013-6-6,61.0,56.9,53.0,57.0,54.0,50.0,100,91,68,0.00,40.00,10,8,19,1.35
2013-6-7,62.0,59.3,56.0,62.0,59.3,56.0,100,100,100,0.00,40.00,5,4,11,0.63
2013-6-8,65.0,57.0,53.0,58.0,54.0,52.0,100,91,64,0.00,40.00,6,4,13,0.03
2013-6-9,77.0,64.1,51.0,59.0,53.3,49.0,100,72,37,0.00,40.00,8,4,12,0.01
2013-6-10,66.0,63.6,61.0,66.0,62.5,58.0,100,96,81,0.00,40.00,8,6,17,0.80
2013-6-11,66.0,62.4,60.0,63.0,60.7,59.0,100,95,83,0.00,40.00,9,7,20,0.20
2013-6-12,75.0,65.9,58.0,63.0,60.4,58.0,100,84,58,0.00,40.00,6,3,13,0.01
2013-6-13,65.0,61.2,55.0,64.0,60.0,52.0,100,96,87,0.00,40.00,12,7,26,0.31
2013-6-14,71.0,60.3,51.0,56.0,50.8,46.0,100,74,45,0.00,40.00,8,5,18,0.01
2013-6-15,73.0,61.6,50.0,57.0,48.9,41.0,100,69,35,0.00,40.00,7,4,15,0.00
2013-6-16,71.0,63.7,58.0,66.0,55.7,42.0,99,77,47,0.00,40.00,13,7,32,0.24
2013-6-17,78.0,68.0,61.0,64.0,58.9,51.0,100,76,39,0.00,40.00,7,5,17,0.25
2013-6-18,74.0,65.9,57.0,61.0,55.3,51.0,87,69,55,0.00,40.00,8,4,15,0.01
2013-6-19,72.0,60.2,49.0,53.0,43.9,40.0,91,59,32,0.00,40.00,7,4,14,0.00
2013-6-20,78.0,62.3,51.0,56.0,48.2,41.0,83,62,39,0.00,40.00,7,5,15,0.00
2013-6-22,82.0,77.9,71.0,64.0,61.8,60.0,75,58,51,0.00,40.00,8,6,15,0.00
2013-6-23,86.0,75.8,65.0,68.0,63.4,59.0,95,68,44,0.00,40.00,9,6,19,0.00
2013-6-24,85.0,76.1,69.0,64.0,61.2,58.0,81,62,42,0.00,40.00,8,5,20,0.00
2013-6-25,79.0,70.5,63.0,74.0,65.5,62.0,99,85,67,0.00,40.00,9,6,28,0.80
2013-6-26,76.0,67.6,62.0,66.0,63.0,60.0,100,86,64,0.00,40.00,9,5,20,0.51
2013-6-27,67.0,65.1,62.0,67.0,65.0,62.0,100,100,95,0.00,40.00,10,4,19,2.82
2013-6-28,76.0,63.7,58.0,68.0,61.8,58.0,100,95,66,0.00,40.00,7,4,15,1.86
2013-6-29,75.0,64.7,58.0,64.0,59.6,55.0,100,86,55,0.00,40.00,9,5,19,0.43
2013-6-30,80.0,66.6,57.0,67.0,62.2,57.0,100,87,57,0.00,40.00,6,3,11,0.86